Time;durP1;ratioP1;P1;durP2;ratioP2;P2;SDS_P1;SDS_P2;PMS_P1;PMS_P2;Temp;Humidity;BMP_temperature;BMP_pressure;BME280_temperature;BME280_humidity;BME280_pressure;Samples;Min_cycle;Max_cycle;Signal;HPM_P1;HPM_P2
2021/09/23 00:00:21;;;;;;;47.83;28.25;;;8.90;99.90;;;;;;5094030;28;20436;-65
2021/09/23 00:02:49;;;;;;;49.10;30.25;;;8.90;99.90;;;;;;5092856;28;20469;-64
2021/09/23 00:05:20;;;;;;;51.03;30.45;;;8.90;99.90;;;;;;5093759;28;20386;-65
2021/09/23 00:07:49;;;;;;;48.75;27.50;;;8.80;99.90;;;;;;5093963;28;20028;-64
2021/09/23 00:10:18;;;;;;;46.03;28.58;;;8.80;99.90;;;;;;5093678;28;20020;-64
2021/09/23 00:12:44;;;;;;;49.70;31.15;;;8.80;99.90;;;;;;5093659;28;20035;-65
2021/09/23 00:15:11;;;;;;;49.83;31.17;;;8.80;99.90;;;;;;5093296;28;20465;-65
2021/09/23 00:17:37;;;;;;;44.50;27.33;;;8.80;99.90;;;;;;5093609;28;20492;-64
2021/09/23 00:20:04;;;;;;;54.65;31.88;;;8.80;99.90;;;;;;5093597;28;20032;-65
2021/09/23 00:22:30;;;;;;;55.95;32.03;;;8.70;99.90;;;;;;5093565;28;20024;-65
2021/09/23 00:24:55;;;;;;;51.50;29.63;;;8.60;99.90;;;;;;5093713;28;20116;-65
2021/09/23 00:27:21;;;;;;;48.40;30.67;;;8.60;99.90;;;;;;5093206;28;20028;-65
2021/09/23 00:29:46;;;;;;;46.58;29.38;;;8.60;99.90;;;;;;5093728;28;20036;-65
2021/09/23 00:32:12;;;;;;;44.75;26.73;;;8.60;99.90;;;;;;5093436;28;20024;-65
2021/09/23 00:34:37;;;;;;;42.33;26.60;;;8.60;99.90;;;;;;5093656;28;20096;-64
2021/09/23 00:37:03;;;;;;;40.63;27.67;;;8.50;99.90;;;;;;5093637;28;20484;-65
2021/09/23 00:39:28;;;;;;;46.08;28.15;;;8.60;99.90;;;;;;5093628;28;20020;-66
2021/09/23 00:41:54;;;;;;;51.45;30.67;;;8.50;99.90;;;;;;5093349;28;20024;-65
2021/09/23 00:44:22;;;;;;;46.05;27.55;;;8.40;99.90;;;;;;5093075;28;20401;-66
2021/09/23 00:46:49;;;;;;;46.95;30.08;;;8.40;99.90;;;;;;5093591;28;20027;-66
2021/09/23 00:49:16;;;;;;;44.72;27.83;;;8.40;99.90;;;;;;5093552;28;20024;-65
2021/09/23 00:51:44;;;;;;;43.67;27.77;;;8.40;99.90;;;;;;5094579;28;20438;-66
2021/09/23 00:54:10;;;;;;;55.63;32.42;;;8.40;99.90;;;;;;5096972;28;20032;-65
2021/09/23 00:56:36;;;;;;;43.55;28.40;;;8.40;99.90;;;;;;5096591;28;20038;-66
2021/09/23 00:59:02;;;;;;;45.47;29.92;;;8.40;99.90;;;;;;5097151;28;20035;-65
2021/09/23 01:01:27;;;;;;;40.95;26.27;;;8.40;99.90;;;;;;5095354;28;20020;-65
2021/09/23 01:03:54;;;;;;;45.58;29.50;;;8.30;99.90;;;;;;5096661;28;20024;-65
2021/09/23 01:06:20;;;;;;;44.88;29.08;;;8.30;99.90;;;;;;5095544;28;20055;-66
2021/09/23 01:08:54;;;;;;;57.30;34.05;;;8.30;99.90;;;;;;5096725;28;20020;-65
2021/09/23 01:11:19;;;;;;;58.35;33.58;;;8.30;99.90;;;;;;5096935;28;20049;-65
2021/09/23 01:13:45;;;;;;;57.45;32.85;;;8.30;99.90;;;;;;5096630;28;20034;-66
2021/09/23 01:16:12;;;;;;;48.92;32.00;;;8.30;99.90;;;;;;5096498;28;20028;-65
2021/09/23 01:18:38;;;;;;;65.28;34.85;;;8.20;99.90;;;;;;5095496;28;20027;-65
2021/09/23 01:21:05;;;;;;;56.78;33.70;;;8.20;99.90;;;;;;5096759;28;20023;-65
2021/09/23 01:23:36;;;;;;;62.00;35.95;;;8.20;99.90;;;;;;5096708;28;20346;-65
2021/09/23 01:26:02;;;;;;;62.00;35.58;;;8.20;99.90;;;;;;5095998;28;20093;-65
2021/09/23 01:28:28;;;;;;;67.53;36.38;;;8.20;99.90;;;;;;5096290;28;20461;-65
2021/09/23 01:30:53;;;;;;;53.75;31.23;;;8.20;99.90;;;;;;5096551;28;20080;-65
2021/09/23 01:33:19;;;;;;;54.05;32.38;;;8.20;99.90;;;;;;5096176;28;20056;-65
2021/09/23 01:35:44;;;;;;;54.65;32.38;;;8.20;99.90;;;;;;5096142;28;20020;-65
2021/09/23 01:38:10;;;;;;;59.92;33.47;;;8.20;99.90;;;;;;5096095;28;20069;-65
2021/09/23 01:40:37;;;;;;;55.00;32.72;;;8.10;99.90;;;;;;5096325;28;20484;-65
2021/09/23 01:43:02;;;;;;;70.40;38.53;;;8.10;99.90;;;;;;5096064;28;20028;-65
2021/09/23 01:45:28;;;;;;;69.05;38.15;;;8.10;99.90;;;;;;5094274;28;20128;-66
2021/09/23 01:47:53;;;;;;;68.13;38.80;;;8.10;99.90;;;;;;5096189;28;20089;-65
2021/09/23 01:50:19;;;;;;;73.90;39.08;;;8.10;99.90;;;;;;5095587;28;20027;-65
2021/09/23 01:52:45;;;;;;;83.32;43.03;;;8.00;99.90;;;;;;5096089;28;20066;-65
2021/09/23 01:55:11;;;;;;;67.18;36.85;;;8.00;99.90;;;;;;5095781;28;20020;-65
2021/09/23 01:57:37;;;;;;;70.45;38.97;;;8.00;99.90;;;;;;5095983;28;20102;-64
2021/09/23 02:00:04;;;;;;;67.80;36.67;;;8.00;99.90;;;;;;5095938;28;20055;-64
2021/09/23 02:02:29;;;;;;;63.28;35.88;;;8.00;99.90;;;;;;5095340;28;20036;-66
2021/09/23 02:04:55;;;;;;;69.50;38.38;;;8.00;99.90;;;;;;5095765;28;20084;-66
2021/09/23 02:07:22;;;;;;;73.60;40.80;;;8.00;99.90;;;;;;5095768;28;20111;-65
2021/09/23 02:09:47;;;;;;;67.35;35.35;;;7.90;99.90;;;;;;5093970;28;20491;-65
2021/09/23 02:12:13;;;;;;;64.13;36.75;;;7.90;99.90;;;;;;5095691;28;20103;-65
2021/09/23 02:14:38;;;;;;;66.43;36.35;;;7.90;99.90;;;;;;5095337;28;20036;-65
2021/09/23 02:17:04;;;;;;;64.70;34.92;;;7.90;99.90;;;;;;5095607;28;20039;-65
2021/09/23 02:19:29;;;;;;;66.63;37.60;;;7.90;99.90;;;;;;5095545;28;20024;-66
2021/09/23 02:21:55;;;;;;;63.97;34.78;;;7.80;99.90;;;;;;5095237;28;20039;-65
2021/09/23 02:24:21;;;;;;;60.45;33.33;;;7.80;99.90;;;;;;5094140;28;20391;-65
2021/09/23 02:26:46;;;;;;;59.55;34.22;;;7.80;99.90;;;;;;5095455;28;20546;-65
2021/09/23 02:29:12;;;;;;;54.03;31.13;;;7.80;99.90;;;;;;5095094;28;20024;-65
2021/09/23 02:31:37;;;;;;;58.80;33.42;;;7.80;99.90;;;;;;5095048;28;20020;-65
2021/09/23 02:34:03;;;;;;;60.00;34.50;;;7.80;99.90;;;;;;5095003;28;20054;-66
2021/09/23 02:36:28;;;;;;;65.38;38.10;;;7.80;99.90;;;;;;5095231;28;20034;-65
2021/09/23 02:38:54;;;;;;;66.80;37.38;;;7.80;99.90;;;;;;5095150;28;20115;-65
2021/09/23 02:41:20;;;;;;;63.83;36.65;;;7.80;99.90;;;;;;5094567;28;20020;-65
2021/09/23 02:43:45;;;;;;;60.00;34.70;;;7.80;99.90;;;;;;5094470;28;20071;-65
2021/09/23 02:46:11;;;;;;;64.53;34.95;;;7.70;99.90;;;;;;5094731;28;20095;-65
2021/09/23 02:48:36;;;;;;;59.78;32.95;;;7.70;99.90;;;;;;5094992;28;20024;-65
2021/09/23 02:51:02;;;;;;;58.28;33.55;;;7.70;99.90;;;;;;5093174;28;20024;-65
2021/09/23 02:53:27;;;;;;;58.22;32.72;;;7.70;99.90;;;;;;5094959;28;20024;-65
2021/09/23 02:55:53;;;;;;;57.78;33.10;;;7.70;99.90;;;;;;5094609;28;20024;-66
2021/09/23 02:58:19;;;;;;;60.05;34.10;;;7.70;99.90;;;;;;5094573;28;20495;-65
2021/09/23 03:00:44;;;;;;;59.13;34.65;;;7.70;99.90;;;;;;5094562;28;20483;-65
2021/09/23 03:03:14;;;;;;;61.03;35.00;;;7.70;99.90;;;;;;5094483;28;20465;-65
2021/09/23 03:05:40;;;;;;;59.67;33.92;;;7.60;99.90;;;;;;5094683;28;20020;-65
2021/09/23 03:08:06;;;;;;;61.10;35.30;;;7.70;99.90;;;;;;5093240;28;20427;-65
2021/09/23 03:10:31;;;;;;;61.28;35.47;;;7.60;99.90;;;;;;5094367;28;20016;-65
2021/09/23 03:12:57;;;;;;;69.32;37.10;;;7.60;99.90;;;;;;5094431;28;20029;-65
2021/09/23 03:15:24;;;;;;;62.92;34.58;;;7.60;99.90;;;;;;5094157;28;20039;-64
2021/09/23 03:17:49;;;;;;;66.85;35.33;;;7.60;99.90;;;;;;5094234;28;20028;-64
2021/09/23 03:20:15;;;;;;;62.40;33.92;;;7.60;99.90;;;;;;5094193;28;20031;-64
2021/09/23 03:22:41;;;;;;;59.60;34.13;;;7.50;99.90;;;;;;5094190;28;20055;-65
2021/09/23 03:25:06;;;;;;;67.95;38.95;;;7.50;99.90;;;;;;5094106;28;20031;-65
2021/09/23 03:27:32;;;;;;;64.72;35.10;;;7.60;99.90;;;;;;5094095;28;20150;-65
2021/09/23 03:29:58;;;;;;;68.30;35.55;;;7.50;99.90;;;;;;5094345;28;20369;-64
2021/09/23 03:32:23;;;;;;;59.20;34.95;;;7.50;99.90;;;;;;5094338;28;20016;-64
2021/09/23 03:34:49;;;;;;;82.78;44.05;;;7.50;99.90;;;;;;5092790;28;20038;-64
2021/09/23 03:37:14;;;;;;;70.05;39.80;;;7.50;99.90;;;;;;5092813;28;20028;-64
2021/09/23 03:39:40;;;;;;;81.00;42.05;;;7.50;99.90;;;;;;5093925;28;20028;-65
2021/09/23 03:42:06;;;;;;;72.07;40.70;;;7.50;99.90;;;;;;5094202;28;20032;-64
2021/09/23 03:44:31;;;;;;;74.82;40.13;;;7.50;99.90;;;;;;5093805;28;20040;-65
2021/09/23 03:46:57;;;;;;;69.15;37.90;;;7.50;99.90;;;;;;5093154;28;20024;-64
2021/09/23 03:49:23;;;;;;;69.57;38.47;;;7.50;99.90;;;;;;5093856;28;20095;-64
2021/09/23 03:51:48;;;;;;;85.10;43.83;;;7.40;99.90;;;;;;5093846;28;20472;-64
2021/09/23 03:54:14;;;;;;;86.20;44.33;;;7.40;99.90;;;;;;5092663;28;20075;-65
2021/09/23 03:56:39;;;;;;;89.97;46.42;;;7.40;99.90;;;;;;5094026;28;20028;-65
2021/09/23 03:59:05;;;;;;;86.15;45.10;;;7.40;99.90;;;;;;5094043;28;20028;-65
2021/09/23 04:01:30;;;;;;;89.68;46.42;;;7.40;99.90;;;;;;5093429;28;20028;-65
2021/09/23 04:03:56;;;;;;;80.38;43.38;;;7.40;99.90;;;;;;5092482;28;20032;-65
2021/09/23 04:06:21;;;;;;;82.70;44.25;;;7.40;99.90;;;;;;5093925;28;20021;-65
2021/09/23 04:08:49;;;;;;;74.80;42.20;;;7.40;99.90;;;;;;5093940;28;20020;-65
2021/09/23 04:11:15;;;;;;;73.03;41.08;;;7.40;99.90;;;;;;5093669;28;20436;-65
2021/09/23 04:13:40;;;;;;;77.65;42.35;;;7.40;99.90;;;;;;5092482;28;20073;-64
2021/09/23 04:16:06;;;;;;;80.90;43.63;;;7.40;99.90;;;;;;5093875;28;20386;-65
2021/09/23 04:18:31;;;;;;;88.75;46.55;;;7.40;99.90;;;;;;5092030;28;20445;-65
2021/09/23 04:20:57;;;;;;;87.63;43.78;;;7.40;99.90;;;;;;5093818;28;20028;-65
2021/09/23 04:23:22;;;;;;;80.38;42.30;;;7.40;99.90;;;;;;5093535;28;20034;-65
2021/09/23 04:25:48;;;;;;;77.07;42.90;;;7.40;99.90;;;;;;5093722;28;20028;-65
2021/09/23 04:28:13;;;;;;;88.60;45.33;;;7.40;99.90;;;;;;5097053;28;20166;-65
2021/09/23 04:30:39;;;;;;;88.57;46.28;;;7.40;99.90;;;;;;5097669;28;20048;-65
2021/09/23 04:33:05;;;;;;;100.78;49.20;;;7.40;99.90;;;;;;5097670;28;20534;-65
2021/09/23 04:35:30;;;;;;;110.47;51.38;;;7.40;99.90;;;;;;5097868;28;20028;-65
2021/09/23 04:37:56;;;;;;;90.72;45.88;;;7.40;99.90;;;;;;5097573;28;20062;-65
2021/09/23 04:40:21;;;;;;;107.20;50.97;;;7.40;99.90;;;;;;5096948;28;20032;-65
2021/09/23 04:42:47;;;;;;;97.90;50.05;;;7.40;99.90;;;;;;5097457;28;20342;-65
2021/09/23 04:45:13;;;;;;;86.20;44.72;;;7.40;99.90;;;;;;5096666;28;20055;-65
2021/09/23 04:47:39;;;;;;;83.93;44.90;;;7.40;99.90;;;;;;5097083;28;20020;-65
2021/09/23 04:50:05;;;;;;;82.60;44.13;;;7.40;99.90;;;;;;5097043;28;20024;-65
2021/09/23 04:52:31;;;;;;;80.85;41.58;;;7.40;99.90;;;;;;5097018;28;20081;-65
2021/09/23 04:54:57;;;;;;;77.07;40.90;;;7.40;99.90;;;;;;5097252;28;20032;-65
2021/09/23 04:57:22;;;;;;;90.10;46.33;;;7.30;99.90;;;;;;5097238;28;20027;-65
2021/09/23 04:59:48;;;;;;;85.78;42.42;;;7.30;99.90;;;;;;5097124;28;20163;-64
2021/09/23 05:02:13;;;;;;;86.18;45.70;;;7.30;99.90;;;;;;5095674;28;20461;-66
2021/09/23 05:04:39;;;;;;;76.53;41.90;;;7.30;99.90;;;;;;5096716;28;20106;-65
2021/09/23 05:07:04;;;;;;;80.07;41.85;;;7.30;99.90;;;;;;5096979;28;20461;-65
2021/09/23 05:09:31;;;;;;;80.13;42.40;;;7.30;99.90;;;;;;5096939;28;20032;-64
2021/09/23 05:11:57;;;;;;;81.28;42.40;;;7.30;99.90;;;;;;5096634;28;20020;-65
2021/09/23 05:14:23;;;;;;;84.43;43.65;;;7.30;99.90;;;;;;5096852;28;20023;-65
2021/09/23 05:16:48;;;;;;;84.28;42.33;;;7.30;99.90;;;;;;5095569;28;20035;-65
2021/09/23 05:19:14;;;;;;;79.40;42.65;;;7.30;99.90;;;;;;5096754;28;20031;-66
2021/09/23 05:21:41;;;;;;;76.55;41.50;;;7.30;99.90;;;;;;5096422;28;20024;-65
2021/09/23 05:24:09;;;;;;;82.40;42.67;;;7.40;99.90;;;;;;5096350;28;20102;-65
2021/09/23 05:26:34;;;;;;;89.47;45.55;;;7.40;99.90;;;;;;5094921;28;20105;-65
2021/09/23 05:29:00;;;;;;;83.47;42.33;;;7.40;99.90;;;;;;5095954;28;20016;-66
2021/09/23 05:31:25;;;;;;;83.32;44.58;;;7.40;99.90;;;;;;5094727;28;20484;-65
2021/09/23 05:33:51;;;;;;;98.22;47.00;;;7.50;99.90;;;;;;5096169;28;20089;-66
2021/09/23 05:36:17;;;;;;;94.43;48.13;;;7.60;99.90;;;;;;5096401;28;20053;-65
2021/09/23 05:38:43;;;;;;;110.55;53.50;;;7.70;99.90;;;;;;5096589;28;20032;-64
2021/09/23 05:41:08;;;;;;;96.75;49.75;;;7.80;99.90;;;;;;5096314;28;20343;-64
2021/09/23 05:43:34;;;;;;;113.85;53.10;;;7.90;99.90;;;;;;5096000;28;20055;-65
2021/09/23 05:45:59;;;;;;;120.47;55.17;;;8.00;99.90;;;;;;5096125;28;20027;-65
2021/09/23 05:48:27;;;;;;;103.53;50.75;;;8.10;99.90;;;;;;5096220;28;20024;-65
2021/09/23 05:50:53;;;;;;;99.60;49.13;;;8.10;99.90;;;;;;5095899;28;20238;-65
2021/09/23 05:53:18;;;;;;;100.03;48.40;;;8.30;99.90;;;;;;5096118;28;20041;-65
2021/09/23 05:55:44;;;;;;;88.25;46.92;;;8.40;99.90;;;;;;5095784;28;20028;-65
2021/09/23 05:58:09;;;;;;;105.53;52.22;;;8.40;99.90;;;;;;5096011;28;20063;-65
2021/09/23 06:00:35;;;;;;;94.30;47.97;;;8.40;99.90;;;;;;5095648;28;20106;-66
2021/09/23 06:03:00;;;;;;;80.97;44.97;;;8.50;99.90;;;;;;5095582;28;20024;-65
2021/09/23 06:05:26;;;;;;;92.13;47.20;;;8.60;99.90;;;;;;5095716;28;20032;-65
2021/09/23 06:07:51;;;;;;;97.03;47.33;;;8.70;99.90;;;;;;5095773;28;20031;-65
2021/09/23 06:10:17;;;;;;;92.13;47.08;;;8.90;99.90;;;;;;5092620;28;20028;-65
2021/09/23 06:12:43;;;;;;;102.25;49.15;;;9.10;99.90;;;;;;5094446;28;20024;-65
2021/09/23 06:15:09;;;;;;;90.53;47.92;;;9.30;99.90;;;;;;5094903;28;20117;-65
2021/09/23 06:17:35;;;;;;;85.50;45.35;;;9.40;99.90;;;;;;5094933;28;20392;-65
2021/09/23 06:20:01;;;;;;;64.22;39.35;;;9.80;99.90;;;;;;5095145;28;20024;-65
2021/09/23 06:22:27;;;;;;;56.08;31.35;;;11.10;99.90;;;;;;5095183;28;20055;-66
2021/09/23 06:24:52;;;;;;;47.47;26.98;;;12.10;99.90;;;;;;5094126;28;20035;-66
2021/09/23 06:27:18;;;;;;;42.17;24.00;;;13.10;99.90;;;;;;5094605;28;20051;-67
2021/09/23 06:29:44;;;;;;;35.22;21.52;;;14.60;99.90;;;;;;5094211;28;20074;-66
2021/09/23 06:32:09;;;;;;;33.67;22.08;;;14.80;99.90;;;;;;5092260;28;20039;-67
2021/09/23 06:34:35;;;;;;;34.13;21.45;;;14.90;99.90;;;;;;5094113;28;20028;-67
2021/09/23 06:37:01;;;;;;;29.98;19.92;;;14.90;99.90;;;;;;5094089;28;20024;-67
2021/09/23 06:39:27;;;;;;;29.08;19.25;;;15.00;99.90;;;;;;5093331;28;20124;-67
2021/09/23 06:41:53;;;;;;;30.55;19.38;;;15.10;99.90;;;;;;5094741;28;20056;-66
2021/09/23 06:44:18;;;;;;;31.55;19.33;;;15.10;99.90;;;;;;5094338;28;20044;-67
2021/09/23 06:46:44;;;;;;;28.10;19.40;;;15.30;99.90;;;;;;5094243;28;20027;-67
2021/09/23 06:49:09;;;;;;;30.77;18.83;;;15.50;99.90;;;;;;5093823;28;20016;-67
2021/09/23 06:51:35;;;;;;;24.55;18.30;;;15.60;99.90;;;;;;5094362;28;20056;-67
2021/09/23 06:54:01;;;;;;;26.30;16.48;;;15.70;99.90;;;;;;5090586;28;20449;-67
2021/09/23 06:56:26;;;;;;;34.00;17.08;;;16.10;99.90;;;;;;5086461;28;20078;-67
2021/09/23 06:58:52;;;;;;;23.33;15.32;;;16.20;99.90;;;;;;5093965;28;20020;-66
2021/09/23 07:01:17;;;;;;;25.27;15.55;;;15.90;99.90;;;;;;5094121;28;20373;-67
2021/09/23 07:03:43;;;;;;;21.30;14.18;;;16.00;99.90;;;;;;5093263;28;20020;-67
2021/09/23 07:06:08;;;;;;;24.20;15.88;;;16.30;99.90;;;;;;5092604;28;20032;-67
2021/09/23 07:08:34;;;;;;;21.92;14.50;;;16.20;99.90;;;;;;5093066;28;20039;-67
2021/09/23 07:11:01;;;;;;;21.10;13.57;;;16.60;99.90;;;;;;5073039;28;20020;-67
2021/09/23 07:13:27;;;;;;;21.90;13.70;;;16.80;99.90;;;;;;5090901;28;20032;-67
2021/09/23 07:15:52;;;;;;;20.33;13.32;;;17.40;99.90;;;;;;5090317;28;20130;-67
2021/09/23 07:18:18;;;;;;;21.13;13.35;;;17.30;99.90;;;;;;5092487;28;20063;-68
2021/09/23 07:20:43;;;;;;;20.33;13.75;;;17.20;99.90;;;;;;5091959;28;20024;-67
2021/09/23 07:23:09;;;;;;;17.73;12.40;;;17.20;99.90;;;;;;5093652;28;20051;-67
2021/09/23 07:25:34;;;;;;;20.23;12.20;;;17.40;99.90;;;;;;5093436;28;20385;-66
2021/09/23 07:28:02;;;;;;;21.23;12.98;;;17.30;99.90;;;;;;5092946;28;20430;-66
2021/09/23 07:30:28;;;;;;;20.30;13.07;;;17.30;99.90;;;;;;5093521;28;20020;-68
2021/09/23 07:32:54;;;;;;;16.67;11.63;;;17.70;99.90;;;;;;5100458;28;20024;-66
2021/09/23 07:35:19;;;;;;;20.08;12.32;;;17.80;99.90;;;;;;5093231;28;20072;-66
2021/09/23 07:37:46;;;;;;;21.98;13.25;;;17.90;99.90;;;;;;5093243;28;20028;-67
2021/09/23 07:40:12;;;;;;;23.02;12.68;;;18.10;99.90;;;;;;5093964;28;20028;-66
2021/09/23 07:42:39;;;;;;;22.95;12.27;;;18.20;99.90;;;;;;5093385;28;20020;-66
2021/09/23 07:45:06;;;;;;;17.50;11.80;;;18.30;99.90;;;;;;5092266;28;20075;-66
2021/09/23 07:47:31;;;;;;;17.33;11.75;;;18.40;99.90;;;;;;5093439;28;20453;-66
2021/09/23 07:49:57;;;;;;;19.30;11.50;;;18.50;99.90;;;;;;5092975;28;20047;-66
2021/09/23 07:52:22;;;;;;;22.27;11.98;;;18.80;99.90;;;;;;5093445;28;20064;-67
2021/09/23 07:54:52;;;;;;;17.95;11.43;;;18.60;99.90;;;;;;5092709;28;20077;-67
2021/09/23 07:57:18;;;;;;;15.75;11.65;;;19.00;99.90;;;;;;5092541;28;20028;-67
2021/09/23 07:59:44;;;;;;;19.20;12.48;;;18.80;99.90;;;;;;5092956;28;20032;-66
2021/09/23 08:02:09;;;;;;;19.23;12.23;;;18.80;99.90;;;;;;5096732;28;20054;-66
2021/09/23 08:04:35;;;;;;;17.65;11.98;;;18.80;99.90;;;;;;5096240;28;20035;-66
2021/09/23 08:07:01;;;;;;;22.13;12.05;;;18.60;99.90;;;;;;5096834;28;20028;-66
2021/09/23 08:09:27;;;;;;;19.60;11.98;;;18.80;99.90;;;;;;5096864;28;20061;-66
2021/09/23 08:11:52;;;;;;;18.88;11.90;;;18.60;99.90;;;;;;5102853;28;20107;-66
2021/09/23 08:14:18;;;;;;;19.15;11.90;;;18.70;99.90;;;;;;5097002;28;20423;-66
2021/09/23 08:16:43;;;;;;;19.25;12.00;;;18.50;99.90;;;;;;5097205;28;20037;-66
2021/09/23 08:19:10;;;;;;;21.63;12.13;;;18.60;99.90;;;;;;5097169;28;20016;-66
2021/09/23 08:21:35;;;;;;;19.92;11.13;;;18.60;99.90;;;;;;5096396;28;20032;-66
2021/09/23 08:24:01;;;;;;;17.60;10.87;;;18.90;99.90;;;;;;5097217;28;20032;-66
2021/09/23 08:26:27;;;;;;;16.75;10.55;;;19.20;99.90;;;;;;5096997;28;20036;-66
2021/09/23 08:28:53;;;;;;;19.00;11.00;;;19.30;99.90;;;;;;5095486;28;20027;-66
2021/09/23 08:31:21;;;;;;;14.68;11.02;;;19.00;99.90;;;;;;5096414;28;20058;-66
2021/09/23 08:33:46;;;;;;;15.40;10.75;;;19.20;99.90;;;;;;5095160;28;20434;-67
2021/09/23 08:36:12;;;;;;;20.92;11.45;;;19.30;99.90;;;;;;5096271;28;20059;-66
2021/09/23 08:38:38;;;;;;;25.20;11.32;;;19.50;99.90;;;;;;5096233;28;20030;-66
2021/09/23 08:41:04;;;;;;;18.30;11.15;;;19.90;99.90;;;;;;5095311;28;20435;-67
2021/09/23 08:43:29;;;;;;;17.10;10.55;;;20.00;99.90;;;;;;5096620;28;20131;-66
2021/09/23 08:45:56;;;;;;;16.58;10.32;;;20.40;99.90;;;;;;5096129;28;20521;-66
2021/09/23 08:48:22;;;;;;;18.38;10.88;;;19.60;99.90;;;;;;5096805;28;20103;-66
2021/09/23 08:50:48;;;;;;;21.13;10.38;;;19.70;99.90;;;;;;5096295;28;20032;-66
2021/09/23 08:53:13;;;;;;;16.60;10.25;;;19.70;99.90;;;;;;5096318;28;20063;-66
2021/09/23 08:55:39;;;;;;;18.55;10.65;;;20.10;99.90;;;;;;5096037;28;20028;-66
2021/09/23 08:58:06;;;;;;;14.95;9.48;;;20.00;99.90;;;;;;5095957;28;20397;-66
2021/09/23 09:00:34;;;;;;;22.65;10.43;;;19.80;99.90;;;;;;5096411;28;20384;-66
2021/09/23 09:03:09;;;;;;;22.77;10.35;;;19.80;99.90;;;;;;5096004;28;20032;-66
2021/09/23 09:05:37;;;;;;;13.55;9.80;;;20.10;99.90;;;;;;5095902;28;20023;-67
2021/09/23 09:08:06;;;;;;;16.48;10.35;;;20.40;99.90;;;;;;5095831;28;20024;-66
2021/09/23 09:10:33;;;;;;;20.08;10.40;;;20.30;99.90;;;;;;5095944;28;20028;-66
2021/09/23 09:13:01;;;;;;;17.13;9.32;;;20.50;99.90;;;;;;5095357;28;20024;-66
2021/09/23 09:15:30;;;;;;;19.60;9.68;;;20.70;99.90;;;;;;5095292;28;20036;-66
2021/09/23 09:17:55;;;;;;;22.98;9.95;;;19.90;99.90;;;;;;5096130;28;20024;-66
2021/09/23 09:20:21;;;;;;;20.23;10.20;;;19.80;99.90;;;;;;5095521;28;20043;-66
2021/09/23 09:22:46;;;;;;;19.55;9.75;;;20.10;99.90;;;;;;5093375;28;20023;-67
2021/09/23 09:25:13;;;;;;;17.48;9.63;;;20.30;99.90;;;;;;5095549;28;20024;-66
2021/09/23 09:27:43;;;;;;;18.88;8.90;;;20.30;99.90;;;;;;5095756;28;20020;-66
2021/09/23 09:30:13;;;;;;;11.90;8.80;;;20.20;99.90;;;;;;5094650;28;20028;-67
2021/09/23 09:32:50;;;;;;;14.48;8.90;;;20.30;99.90;;;;;;5095551;28;20021;-66
2021/09/23 09:35:19;;;;;;;15.55;8.30;;;20.70;99.90;;;;;;5095141;28;20032;-66
2021/09/23 09:37:48;;;;;;;14.35;8.43;;;21.10;99.90;;;;;;5094115;28;20107;-67
2021/09/23 09:40:18;;;;;;;13.45;8.98;;;21.10;99.90;;;;;;5095757;28;20020;-67
2021/09/23 09:42:46;;;;;;;14.88;8.50;;;20.80;99.90;;;;;;5095422;28;20152;-67
2021/09/23 09:45:22;;;;;;;16.42;8.80;;;21.20;99.90;;;;;;5095249;28;20044;-67
2021/09/23 09:47:55;;;;;;;15.90;8.45;;;21.40;99.90;;;;;;5095002;28;20073;-66
2021/09/23 09:50:24;;;;;;;16.80;8.35;;;21.10;99.90;;;;;;5095107;28;20031;-67
2021/09/23 09:52:57;;;;;;;14.93;8.75;;;20.60;99.90;;;;;;5094827;28;20073;-66
2021/09/23 09:55:28;;;;;;;11.03;8.40;;;20.70;99.90;;;;;;5094835;28;20486;-67
2021/09/23 09:57:54;;;;;;;16.30;8.82;;;21.30;99.90;;;;;;5094229;28;20066;-66
2021/09/23 10:00:21;;;;;;;17.50;8.98;;;20.70;99.90;;;;;;5093145;28;20032;-66
2021/09/23 10:02:47;;;;;;;13.20;8.75;;;20.50;99.90;;;;;;5093562;28;20020;-66
2021/09/23 10:05:15;;;;;;;15.70;8.57;;;20.60;99.90;;;;;;5095299;28;20063;-66
2021/09/23 10:07:44;;;;;;;21.02;9.25;;;20.30;99.90;;;;;;5094667;28;20020;-67
2021/09/23 10:10:11;;;;;;;12.50;7.88;;;20.60;99.90;;;;;;5094118;28;20024;-66
2021/09/23 10:12:40;;;;;;;17.20;8.43;;;20.60;99.90;;;;;;5093344;28;20081;-66
2021/09/23 10:15:09;;;;;;;11.93;8.18;;;20.80;99.90;;;;;;5094425;28;20071;-66
2021/09/23 10:17:36;;;;;;;13.75;7.85;;;21.30;99.90;;;;;;5094667;28;20509;-66
2021/09/23 10:20:04;;;;;;;13.18;7.47;;;21.30;99.90;;;;;;5094971;28;20427;-67
2021/09/23 10:22:30;;;;;;;14.70;7.72;;;20.70;99.90;;;;;;5094384;28;20024;-66
2021/09/23 10:24:56;;;;;;;13.77;6.90;;;21.00;99.90;;;;;;5093114;28;20035;-67
2021/09/23 10:30:10;;;;;;;17.63;6.43;;;21.20;99.90;;;;;;5094187;28;20022;-67
2021/09/23 10:32:36;;;;;;;33.97;8.25;;;21.40;99.90;;;;;;5094509;28;20082;-66
2021/09/23 10:35:03;;;;;;;11.38;8.38;;;21.20;99.90;;;;;;5094171;28;20028;-67
2021/09/23 10:37:32;;;;;;;26.95;9.82;;;21.10;99.90;;;;;;5094331;28;20112;-67
2021/09/23 10:39:57;;;;;;;17.33;8.68;;;21.30;99.90;;;;;;5093728;28;20465;-67
2021/09/23 10:42:23;;;;;;;14.95;7.90;;;21.40;99.90;;;;;;5094162;28;20028;-67
2021/09/23 10:44:51;;;;;;;17.50;8.18;;;21.50;99.90;;;;;;5093555;28;20036;-67
2021/09/23 10:47:37;;;;;;;12.00;7.95;;;21.60;99.90;;;;;;5094603;28;20486;-67
2021/09/23 10:50:06;;;;;;;13.60;9.05;;;21.80;99.90;;;;;;5093470;28;20385;-67
2021/09/23 10:52:34;;;;;;;23.70;9.88;;;21.50;99.90;;;;;;5094155;28;20303;-67
2021/09/23 10:55:02;;;;;;;13.48;8.90;;;21.20;99.90;;;;;;5093647;28;20105;-67
2021/09/23 10:57:29;;;;;;;17.58;8.27;;;21.30;99.90;;;;;;5094313;28;20031;-67
2021/09/23 10:59:55;;;;;;;14.68;9.38;;;21.50;99.90;;;;;;5094040;28;20047;-68
2021/09/23 11:02:24;;;;;;;15.13;8.18;;;21.40;99.90;;;;;;5093565;28;20031;-67
2021/09/23 11:04:53;;;;;;;17.40;9.20;;;21.70;99.90;;;;;;5093634;28;20023;-67
2021/09/23 11:07:20;;;;;;;15.18;9.45;;;21.80;99.90;;;;;;5091318;28;20378;-66
2021/09/23 11:10:07;;;;;;;11.68;8.73;;;21.40;99.90;;;;;;5094235;28;20119;-66
2021/09/23 11:12:33;;;;;;;14.98;9.35;;;21.70;99.90;;;;;;5093350;28;20051;-67
2021/09/23 11:15:00;;;;;;;24.00;10.57;;;21.00;99.90;;;;;;5093756;28;20100;-67
2021/09/23 11:17:27;;;;;;;14.65;10.90;;;20.90;99.90;;;;;;5092855;28;20101;-67
2021/09/23 11:19:55;;;;;;;19.77;10.30;;;20.70;99.90;;;;;;5092625;28;20028;-67
2021/09/23 11:22:34;;;;;;;17.67;9.93;;;20.90;99.90;;;;;;5089248;28;20016;-66
2021/09/23 11:25:04;;;;;;;16.48;10.25;;;20.90;99.90;;;;;;5093639;28;20016;-67
2021/09/23 11:27:30;;;;;;;15.85;9.13;;;21.30;99.90;;;;;;5093535;28;20034;-67
2021/09/23 11:29:56;;;;;;;13.73;8.63;;;21.90;99.90;;;;;;5093167;28;20111;-65
2021/09/23 11:32:22;;;;;;;16.65;7.95;;;22.20;99.90;;;;;;5092970;28;20062;-67
2021/09/23 11:34:58;;;;;;;12.27;7.65;;;22.10;99.90;;;;;;5092687;28;20032;-67
2021/09/23 11:37:32;;;;;;;14.75;7.97;;;22.20;99.90;;;;;;5091181;28;20061;-67
2021/09/23 11:40:00;;;;;;;12.88;7.95;;;21.90;99.90;;;;;;5092490;28;20437;-67
2021/09/23 11:42:32;;;;;;;15.55;7.53;;;22.20;99.90;;;;;;5091037;28;20077;-66
2021/09/23 11:45:20;;;;;;;14.80;7.40;;;22.00;99.90;;;;;;5093012;28;20501;-67
2021/09/23 11:47:49;;;;;;;16.13;8.35;;;22.10;99.90;;;;;;5092983;28;20048;-67
2021/09/23 11:53:21;;;;;;;14.88;8.75;;;22.10;99.90;;;;;;5090277;28;20364;-67
2021/09/23 11:56:01;;;;;;;17.73;9.73;;;21.90;99.90;;;;;;5089295;28;20032;-66
2021/09/23 11:58:28;;;;;;;15.48;10.18;;;22.10;99.90;;;;;;5090447;28;20107;-67
2021/09/23 12:00:55;;;;;;;25.38;10.88;;;21.70;99.90;;;;;;5088008;28;20384;-64
2021/09/23 12:03:22;;;;;;;17.92;11.25;;;21.10;99.90;;;;;;5090030;28;20024;-67
2021/09/23 12:05:49;;;;;;;17.38;9.93;;;21.00;99.90;;;;;;5089789;28;20078;-67
2021/09/23 12:08:19;;;;;;;17.60;10.10;;;21.30;99.90;;;;;;5090222;28;20385;-67
2021/09/23 12:11:06;;;;;;;16.17;9.40;;;21.20;99.90;;;;;;5090864;28;20024;-67
2021/09/23 12:13:38;;;;;;;18.77;10.70;;;21.30;99.90;;;;;;5089897;28;20027;-67
2021/09/23 12:18:46;;;;;;;19.75;9.05;;;21.30;99.90;;;;;;5110656;27;20371;-67
2021/09/23 12:21:15;;;;;;;15.45;10.18;;;21.60;99.90;;;;;;5110001;28;20028;-66
2021/09/23 12:23:44;;;;;;;13.75;9.95;;;21.50;99.90;;;;;;5110708;28;20020;-66
2021/09/23 12:26:16;;;;;;;18.45;10.57;;;21.40;99.90;;;;;;5110852;28;20016;-67
2021/09/23 12:29:03;;;;;;;12.75;10.13;;;21.70;99.90;;;;;;5110512;28;20015;-67
2021/09/23 12:31:34;;;;;;;11.23;8.90;;;21.90;99.90;;;;;;5109825;28;20024;-67
2021/09/23 12:34:04;;;;;;;14.07;9.88;;;21.80;99.90;;;;;;5108032;28;20019;-67
2021/09/23 12:36:34;;;;;;;19.17;10.80;;;21.60;99.90;;;;;;5109199;28;20409;-67
2021/09/23 12:39:17;;;;;;;17.05;10.75;;;21.40;99.90;;;;;;5106126;28;20020;-67